sensor_id;sensor_type;location;lat;lon;timestamp;P1;durP1;ratioP1;P2;durP2;ratioP2
78925;SDS011;68321;51.276;7.208;2023-04-23T00:02:18;22.00;;;14.70;;
78925;SDS011;68321;51.276;7.208;2023-04-23T00:04:47;25.20;;;14.35;;
78925;SDS011;68321;51.276;7.208;2023-04-23T00:07:15;21.85;;;14.57;;
78925;SDS011;68321;51.276;7.208;2023-04-23T00:09:43;20.58;;;14.05;;
78925;SDS011;68321;51.276;7.208;2023-04-23T00:12:09;19.63;;;13.40;;
78925;SDS011;68321;51.276;7.208;2023-04-23T00:14:34;22.08;;;14.77;;
78925;SDS011;68321;51.276;7.208;2023-04-23T00:17:00;22.00;;;13.52;;
78925;SDS011;68321;51.276;7.208;2023-04-23T00:19:26;22.17;;;14.40;;
78925;SDS011;68321;51.276;7.208;2023-04-23T00:21:51;19.87;;;13.80;;
78925;SDS011;68321;51.276;7.208;2023-04-23T00:24:16;19.67;;;14.57;;
78925;SDS011;68321;51.276;7.208;2023-04-23T00:26:42;22.03;;;13.80;;
78925;SDS011;68321;51.276;7.208;2023-04-23T00:29:07;23.33;;;14.87;;
78925;SDS011;68321;51.276;7.208;2023-04-23T00:31:32;19.50;;;13.82;;
78925;SDS011;68321;51.276;7.208;2023-04-23T00:33:58;21.85;;;16.70;;
78925;SDS011;68321;51.276;7.208;2023-04-23T00:36:23;22.40;;;14.68;;
78925;SDS011;68321;51.276;7.208;2023-04-23T00:38:50;21.60;;;13.15;;
78925;SDS011;68321;51.276;7.208;2023-04-23T00:41:15;18.50;;;12.50;;
78925;SDS011;68321;51.276;7.208;2023-04-23T00:43:41;21.25;;;13.65;;
78925;SDS011;68321;51.276;7.208;2023-04-23T00:46:07;21.38;;;14.32;;
78925;SDS011;68321;51.276;7.208;2023-04-23T00:48:33;23.20;;;14.90;;
78925;SDS011;68321;51.276;7.208;2023-04-23T00:50:59;21.60;;;15.30;;
78925;SDS011;68321;51.276;7.208;2023-04-23T00:53:27;19.77;;;14.88;;
78925;SDS011;68321;51.276;7.208;2023-04-23T00:55:53;19.70;;;13.73;;
78925;SDS011;68321;51.276;7.208;2023-04-23T00:58:18;19.95;;;13.55;;
78925;SDS011;68321;51.276;7.208;2023-04-23T01:00:45;23.70;;;16.33;;
78925;SDS011;68321;51.276;7.208;2023-04-23T01:03:11;23.08;;;15.73;;
78925;SDS011;68321;51.276;7.208;2023-04-23T01:05:37;20.83;;;14.00;;
78925;SDS011;68321;51.276;7.208;2023-04-23T01:08:04;23.77;;;14.55;;
78925;SDS011;68321;51.276;7.208;2023-04-23T01:10:30;22.95;;;15.48;;
78925;SDS011;68321;51.276;7.208;2023-04-23T01:12:56;23.73;;;15.02;;
78925;SDS011;68321;51.276;7.208;2023-04-23T01:15:24;23.15;;;14.70;;
78925;SDS011;68321;51.276;7.208;2023-04-23T01:17:49;20.60;;;13.73;;
78925;SDS011;68321;51.276;7.208;2023-04-23T01:20:15;23.73;;;16.35;;
78925;SDS011;68321;51.276;7.208;2023-04-23T01:22:40;23.02;;;16.05;;
78925;SDS011;68321;51.276;7.208;2023-04-23T01:25:06;27.67;;;15.70;;
78925;SDS011;68321;51.276;7.208;2023-04-23T01:27:32;23.85;;;15.10;;
78925;SDS011;68321;51.276;7.208;2023-04-23T01:30:00;22.60;;;14.43;;
78925;SDS011;68321;51.276;7.208;2023-04-23T01:32:27;24.45;;;14.25;;
78925;SDS011;68321;51.276;7.208;2023-04-23T01:34:53;22.60;;;15.57;;
78925;SDS011;68321;51.276;7.208;2023-04-23T01:37:19;24.80;;;16.60;;
78925;SDS011;68321;51.276;7.208;2023-04-23T01:39:45;22.85;;;15.43;;
78925;SDS011;68321;51.276;7.208;2023-04-23T01:42:10;21.08;;;15.27;;
78925;SDS011;68321;51.276;7.208;2023-04-23T01:44:36;22.65;;;14.85;;
78925;SDS011;68321;51.276;7.208;2023-04-23T01:47:01;23.48;;;16.08;;
78925;SDS011;68321;51.276;7.208;2023-04-23T01:49:27;23.08;;;14.50;;
78925;SDS011;68321;51.276;7.208;2023-04-23T01:51:53;24.23;;;15.37;;
78925;SDS011;68321;51.276;7.208;2023-04-23T01:54:18;23.73;;;15.00;;
78925;SDS011;68321;51.276;7.208;2023-04-23T01:56:43;25.40;;;16.63;;
78925;SDS011;68321;51.276;7.208;2023-04-23T01:59:09;23.47;;;15.97;;
78925;SDS011;68321;51.276;7.208;2023-04-23T02:01:41;24.67;;;15.30;;
78925;SDS011;68321;51.276;7.208;2023-04-23T02:04:07;22.92;;;16.08;;
78925;SDS011;68321;51.276;7.208;2023-04-23T02:06:33;24.13;;;16.27;;
78925;SDS011;68321;51.276;7.208;2023-04-23T02:08:58;22.40;;;15.33;;
78925;SDS011;68321;51.276;7.208;2023-04-23T02:11:23;22.13;;;16.33;;
78925;SDS011;68321;51.276;7.208;2023-04-23T02:13:49;22.42;;;15.63;;
78925;SDS011;68321;51.276;7.208;2023-04-23T02:16:14;22.25;;;15.15;;
78925;SDS011;68321;51.276;7.208;2023-04-23T02:18:40;22.98;;;14.70;;
78925;SDS011;68321;51.276;7.208;2023-04-23T02:21:06;22.55;;;15.65;;
78925;SDS011;68321;51.276;7.208;2023-04-23T02:23:31;27.25;;;16.02;;
78925;SDS011;68321;51.276;7.208;2023-04-23T02:25:57;24.40;;;14.83;;
78925;SDS011;68321;51.276;7.208;2023-04-23T02:28:22;25.40;;;16.97;;
78925;SDS011;68321;51.276;7.208;2023-04-23T02:30:47;25.53;;;16.67;;
78925;SDS011;68321;51.276;7.208;2023-04-23T02:33:13;27.70;;;17.40;;
78925;SDS011;68321;51.276;7.208;2023-04-23T02:35:38;24.17;;;16.63;;
78925;SDS011;68321;51.276;7.208;2023-04-23T02:38:03;25.35;;;17.00;;
78925;SDS011;68321;51.276;7.208;2023-04-23T02:40:29;27.08;;;15.75;;
78925;SDS011;68321;51.276;7.208;2023-04-23T02:42:54;26.20;;;17.90;;
78925;SDS011;68321;51.276;7.208;2023-04-23T02:45:19;28.00;;;16.73;;
78925;SDS011;68321;51.276;7.208;2023-04-23T02:47:45;26.95;;;15.70;;
78925;SDS011;68321;51.276;7.208;2023-04-23T02:50:10;24.80;;;16.37;;
78925;SDS011;68321;51.276;7.208;2023-04-23T02:52:35;27.33;;;16.97;;
78925;SDS011;68321;51.276;7.208;2023-04-23T02:55:01;32.20;;;16.38;;
78925;SDS011;68321;51.276;7.208;2023-04-23T02:57:27;26.30;;;16.98;;
78925;SDS011;68321;51.276;7.208;2023-04-23T02:59:53;25.60;;;15.50;;
78925;SDS011;68321;51.276;7.208;2023-04-23T03:02:18;27.00;;;17.08;;
78925;SDS011;68321;51.276;7.208;2023-04-23T03:04:44;28.63;;;18.02;;
78925;SDS011;68321;51.276;7.208;2023-04-23T03:07:09;28.65;;;17.70;;
78925;SDS011;68321;51.276;7.208;2023-04-23T03:09:37;28.02;;;15.73;;
78925;SDS011;68321;51.276;7.208;2023-04-23T03:12:02;24.90;;;15.88;;
78925;SDS011;68321;51.276;7.208;2023-04-23T03:14:27;30.42;;;16.88;;
78925;SDS011;68321;51.276;7.208;2023-04-23T03:16:53;26.90;;;17.52;;
78925;SDS011;68321;51.276;7.208;2023-04-23T03:19:18;28.40;;;18.17;;
78925;SDS011;68321;51.276;7.208;2023-04-23T03:21:43;27.10;;;16.08;;
78925;SDS011;68321;51.276;7.208;2023-04-23T03:24:11;27.23;;;17.00;;
78925;SDS011;68321;51.276;7.208;2023-04-23T03:26:37;25.17;;;16.08;;
78925;SDS011;68321;51.276;7.208;2023-04-23T03:29:02;24.87;;;16.90;;
78925;SDS011;68321;51.276;7.208;2023-04-23T03:31:27;28.40;;;17.77;;
78925;SDS011;68321;51.276;7.208;2023-04-23T03:33:53;26.90;;;17.17;;
78925;SDS011;68321;51.276;7.208;2023-04-23T03:36:18;23.57;;;15.50;;
78925;SDS011;68321;51.276;7.208;2023-04-23T03:38:43;28.00;;;16.63;;
78925;SDS011;68321;51.276;7.208;2023-04-23T03:41:09;27.98;;;16.70;;
78925;SDS011;68321;51.276;7.208;2023-04-23T03:43:34;24.70;;;14.65;;
78925;SDS011;68321;51.276;7.208;2023-04-23T03:46:00;29.08;;;16.65;;
78925;SDS011;68321;51.276;7.208;2023-04-23T03:48:25;27.27;;;18.17;;
78925;SDS011;68321;51.276;7.208;2023-04-23T03:50:51;24.75;;;15.48;;
78925;SDS011;68321;51.276;7.208;2023-04-23T03:53:16;24.48;;;15.20;;
78925;SDS011;68321;51.276;7.208;2023-04-23T03:55:42;24.85;;;16.50;;
78925;SDS011;68321;51.276;7.208;2023-04-23T03:58:07;25.45;;;17.23;;
78925;SDS011;68321;51.276;7.208;2023-04-23T04:00:33;24.77;;;15.80;;
78925;SDS011;68321;51.276;7.208;2023-04-23T04:02:59;27.05;;;18.13;;
78925;SDS011;68321;51.276;7.208;2023-04-23T04:05:26;26.98;;;17.52;;
78925;SDS011;68321;51.276;7.208;2023-04-23T04:07:51;27.70;;;16.98;;
78925;SDS011;68321;51.276;7.208;2023-04-23T04:10:16;28.00;;;17.73;;
78925;SDS011;68321;51.276;7.208;2023-04-23T04:12:42;27.43;;;16.13;;
78925;SDS011;68321;51.276;7.208;2023-04-23T04:15:09;26.45;;;17.65;;
78925;SDS011;68321;51.276;7.208;2023-04-23T04:17:35;26.58;;;15.68;;
78925;SDS011;68321;51.276;7.208;2023-04-23T04:20:00;28.27;;;17.48;;
78925;SDS011;68321;51.276;7.208;2023-04-23T04:22:26;26.00;;;16.27;;
78925;SDS011;68321;51.276;7.208;2023-04-23T04:24:51;28.77;;;17.05;;
78925;SDS011;68321;51.276;7.208;2023-04-23T04:27:16;29.08;;;16.52;;
78925;SDS011;68321;51.276;7.208;2023-04-23T04:29:42;29.27;;;18.05;;
78925;SDS011;68321;51.276;7.208;2023-04-23T04:32:08;32.90;;;17.55;;
78925;SDS011;68321;51.276;7.208;2023-04-23T04:34:33;28.20;;;17.63;;
78925;SDS011;68321;51.276;7.208;2023-04-23T04:37:00;30.90;;;17.70;;
78925;SDS011;68321;51.276;7.208;2023-04-23T04:39:25;27.13;;;18.13;;
78925;SDS011;68321;51.276;7.208;2023-04-23T04:41:51;26.42;;;18.00;;
78925;SDS011;68321;51.276;7.208;2023-04-23T04:44:17;31.08;;;18.20;;
78925;SDS011;68321;51.276;7.208;2023-04-23T04:46:42;30.10;;;18.23;;
78925;SDS011;68321;51.276;7.208;2023-04-23T04:49:08;27.07;;;18.20;;
78925;SDS011;68321;51.276;7.208;2023-04-23T04:51:37;27.20;;;16.50;;
78925;SDS011;68321;51.276;7.208;2023-04-23T04:54:03;26.00;;;17.10;;
78925;SDS011;68321;51.276;7.208;2023-04-23T04:56:30;27.27;;;17.85;;
78925;SDS011;68321;51.276;7.208;2023-04-23T04:58:55;29.65;;;18.17;;
78925;SDS011;68321;51.276;7.208;2023-04-23T05:01:21;24.23;;;15.33;;
78925;SDS011;68321;51.276;7.208;2023-04-23T05:03:50;27.45;;;17.05;;
78925;SDS011;68321;51.276;7.208;2023-04-23T05:06:16;24.77;;;15.77;;
78925;SDS011;68321;51.276;7.208;2023-04-23T05:08:42;25.03;;;14.30;;
78925;SDS011;68321;51.276;7.208;2023-04-23T05:11:11;26.42;;;16.38;;
78925;SDS011;68321;51.276;7.208;2023-04-23T05:13:40;25.35;;;16.30;;
78925;SDS011;68321;51.276;7.208;2023-04-23T05:16:06;23.15;;;16.13;;
78925;SDS011;68321;51.276;7.208;2023-04-23T05:18:31;22.42;;;15.35;;
78925;SDS011;68321;51.276;7.208;2023-04-23T05:20:56;22.87;;;14.80;;
78925;SDS011;68321;51.276;7.208;2023-04-23T05:23:22;22.67;;;14.50;;
78925;SDS011;68321;51.276;7.208;2023-04-23T05:25:47;21.98;;;13.55;;
78925;SDS011;68321;51.276;7.208;2023-04-23T05:28:13;21.17;;;14.77;;
78925;SDS011;68321;51.276;7.208;2023-04-23T05:30:39;20.42;;;15.80;;
78925;SDS011;68321;51.276;7.208;2023-04-23T05:33:04;21.67;;;13.77;;
78925;SDS011;68321;51.276;7.208;2023-04-23T05:35:30;21.50;;;14.40;;
78925;SDS011;68321;51.276;7.208;2023-04-23T05:37:56;20.67;;;12.50;;
78925;SDS011;68321;51.276;7.208;2023-04-23T05:40:21;20.23;;;13.20;;
78925;SDS011;68321;51.276;7.208;2023-04-23T05:42:47;20.48;;;13.68;;
78925;SDS011;68321;51.276;7.208;2023-04-23T05:45:13;21.08;;;14.32;;
78925;SDS011;68321;51.276;7.208;2023-04-23T05:47:38;19.47;;;14.03;;
78925;SDS011;68321;51.276;7.208;2023-04-23T05:50:04;20.23;;;13.38;;
78925;SDS011;68321;51.276;7.208;2023-04-23T05:52:30;19.83;;;13.35;;
78925;SDS011;68321;51.276;7.208;2023-04-23T05:54:57;19.20;;;13.30;;
78925;SDS011;68321;51.276;7.208;2023-04-23T05:57:22;17.95;;;12.65;;
78925;SDS011;68321;51.276;7.208;2023-04-23T05:59:48;20.13;;;13.20;;
78925;SDS011;68321;51.276;7.208;2023-04-23T06:02:13;16.70;;;11.73;;
78925;SDS011;68321;51.276;7.208;2023-04-23T06:04:38;18.60;;;11.73;;
78925;SDS011;68321;51.276;7.208;2023-04-23T06:07:04;17.17;;;11.68;;
78925;SDS011;68321;51.276;7.208;2023-04-23T06:09:30;12.07;;;8.80;;
78925;SDS011;68321;51.276;7.208;2023-04-23T06:11:55;13.00;;;10.23;;
78925;SDS011;68321;51.276;7.208;2023-04-23T06:14:21;10.73;;;8.45;;
78925;SDS011;68321;51.276;7.208;2023-04-23T06:16:46;13.27;;;8.57;;
78925;SDS011;68321;51.276;7.208;2023-04-23T06:19:11;12.37;;;8.63;;
78925;SDS011;68321;51.276;7.208;2023-04-23T06:21:37;13.37;;;9.67;;
78925;SDS011;68321;51.276;7.208;2023-04-23T06:24:02;13.52;;;9.15;;
78925;SDS011;68321;51.276;7.208;2023-04-23T06:26:27;11.98;;;9.13;;
78925;SDS011;68321;51.276;7.208;2023-04-23T06:28:53;13.40;;;9.53;;
78925;SDS011;68321;51.276;7.208;2023-04-23T06:31:18;10.60;;;7.90;;
78925;SDS011;68321;51.276;7.208;2023-04-23T06:33:44;11.30;;;9.35;;
78925;SDS011;68321;51.276;7.208;2023-04-23T06:36:09;13.93;;;9.40;;
78925;SDS011;68321;51.276;7.208;2023-04-23T06:38:35;10.95;;;7.93;;
78925;SDS011;68321;51.276;7.208;2023-04-23T06:41:03;9.95;;;7.82;;
78925;SDS011;68321;51.276;7.208;2023-04-23T06:43:29;9.13;;;7.00;;
78925;SDS011;68321;51.276;7.208;2023-04-23T06:45:55;11.40;;;7.60;;
78925;SDS011;68321;51.276;7.208;2023-04-23T06:48:20;12.57;;;7.47;;
78925;SDS011;68321;51.276;7.208;2023-04-23T06:50:46;14.68;;;7.93;;
78925;SDS011;68321;51.276;7.208;2023-04-23T06:53:12;10.02;;;7.00;;
78925;SDS011;68321;51.276;7.208;2023-04-23T06:55:38;8.23;;;6.70;;
78925;SDS011;68321;51.276;7.208;2023-04-23T06:58:03;9.05;;;7.38;;
78925;SDS011;68321;51.276;7.208;2023-04-23T07:00:31;8.43;;;6.65;;
78925;SDS011;68321;51.276;7.208;2023-04-23T07:02:56;10.07;;;6.78;;
78925;SDS011;68321;51.276;7.208;2023-04-23T07:05:22;10.20;;;8.35;;
78925;SDS011;68321;51.276;7.208;2023-04-23T07:07:47;8.67;;;6.43;;
78925;SDS011;68321;51.276;7.208;2023-04-23T07:10:12;7.70;;;6.63;;
78925;SDS011;68321;51.276;7.208;2023-04-23T07:12:38;8.85;;;7.18;;
78925;SDS011;68321;51.276;7.208;2023-04-23T07:15:03;8.73;;;6.45;;
78925;SDS011;68321;51.276;7.208;2023-04-23T07:17:29;9.95;;;7.15;;
78925;SDS011;68321;51.276;7.208;2023-04-23T07:19:55;8.43;;;6.43;;
78925;SDS011;68321;51.276;7.208;2023-04-23T07:22:20;8.52;;;6.53;;
78925;SDS011;68321;51.276;7.208;2023-04-23T07:24:45;8.82;;;6.90;;
78925;SDS011;68321;51.276;7.208;2023-04-23T07:27:11;9.80;;;5.93;;
78925;SDS011;68321;51.276;7.208;2023-04-23T07:29:36;7.67;;;4.93;;
78925;SDS011;68321;51.276;7.208;2023-04-23T07:32:01;7.27;;;6.13;;
78925;SDS011;68321;51.276;7.208;2023-04-23T07:34:27;6.93;;;4.70;;
78925;SDS011;68321;51.276;7.208;2023-04-23T07:36:52;9.27;;;6.90;;
78925;SDS011;68321;51.276;7.208;2023-04-23T07:39:18;7.50;;;5.72;;
78925;SDS011;68321;51.276;7.208;2023-04-23T07:41:43;7.83;;;5.17;;
78925;SDS011;68321;51.276;7.208;2023-04-23T07:44:08;5.30;;;4.80;;
78925;SDS011;68321;51.276;7.208;2023-04-23T07:46:34;7.60;;;5.07;;
78925;SDS011;68321;51.276;7.208;2023-04-23T07:48:59;6.43;;;4.68;;
78925;SDS011;68321;51.276;7.208;2023-04-23T07:51:24;6.87;;;5.23;;
78925;SDS011;68321;51.276;7.208;2023-04-23T07:53:54;5.22;;;4.43;;
78925;SDS011;68321;51.276;7.208;2023-04-23T07:56:20;5.78;;;4.65;;
78925;SDS011;68321;51.276;7.208;2023-04-23T07:58:46;7.55;;;5.03;;
78925;SDS011;68321;51.276;7.208;2023-04-23T08:01:12;5.07;;;3.78;;
78925;SDS011;68321;51.276;7.208;2023-04-23T08:03:37;5.97;;;4.43;;
78925;SDS011;68321;51.276;7.208;2023-04-23T08:06:02;8.77;;;4.17;;
78925;SDS011;68321;51.276;7.208;2023-04-23T08:08:28;10.82;;;6.40;;
78925;SDS011;68321;51.276;7.208;2023-04-23T08:10:54;5.72;;;4.40;;
78925;SDS011;68321;51.276;7.208;2023-04-23T08:13:19;5.47;;;3.80;;
78925;SDS011;68321;51.276;7.208;2023-04-23T08:15:45;6.33;;;3.60;;
78925;SDS011;68321;51.276;7.208;2023-04-23T08:18:10;5.47;;;3.50;;
78925;SDS011;68321;51.276;7.208;2023-04-23T08:20:35;6.20;;;3.67;;
78925;SDS011;68321;51.276;7.208;2023-04-23T08:23:01;10.33;;;3.90;;
78925;SDS011;68321;51.276;7.208;2023-04-23T08:25:26;5.78;;;4.15;;
78925;SDS011;68321;51.276;7.208;2023-04-23T08:27:51;5.40;;;3.53;;
78925;SDS011;68321;51.276;7.208;2023-04-23T08:30:17;5.35;;;4.15;;
78925;SDS011;68321;51.276;7.208;2023-04-23T08:32:42;7.37;;;3.90;;
78925;SDS011;68321;51.276;7.208;2023-04-23T08:35:07;5.53;;;3.10;;
78925;SDS011;68321;51.276;7.208;2023-04-23T08:37:33;5.28;;;3.10;;
78925;SDS011;68321;51.276;7.208;2023-04-23T08:39:59;4.15;;;2.85;;
78925;SDS011;68321;51.276;7.208;2023-04-23T08:45:11;3.08;;;2.50;;
78925;SDS011;68321;51.276;7.208;2023-04-23T08:47:38;7.15;;;3.38;;
78925;SDS011;68321;51.276;7.208;2023-04-23T08:50:07;3.25;;;2.70;;
78925;SDS011;68321;51.276;7.208;2023-04-23T08:52:39;4.05;;;3.03;;
78925;SDS011;68321;51.276;7.208;2023-04-23T08:55:06;4.88;;;3.00;;
78925;SDS011;68321;51.276;7.208;2023-04-23T08:57:34;5.57;;;3.45;;
78925;SDS011;68321;51.276;7.208;2023-04-23T09:00:02;5.00;;;2.75;;
78925;SDS011;68321;51.276;7.208;2023-04-23T09:02:30;5.90;;;3.08;;
78925;SDS011;68321;51.276;7.208;2023-04-23T09:04:56;4.47;;;3.03;;
78925;SDS011;68321;51.276;7.208;2023-04-23T09:07:22;4.03;;;2.70;;
78925;SDS011;68321;51.276;7.208;2023-04-23T09:09:47;6.10;;;3.20;;
78925;SDS011;68321;51.276;7.208;2023-04-23T09:12:12;4.57;;;2.67;;
78925;SDS011;68321;51.276;7.208;2023-04-23T09:14:38;5.65;;;2.78;;
78925;SDS011;68321;51.276;7.208;2023-04-23T09:17:03;3.97;;;2.30;;
78925;SDS011;68321;51.276;7.208;2023-04-23T09:19:29;5.22;;;2.70;;
78925;SDS011;68321;51.276;7.208;2023-04-23T09:21:54;3.53;;;2.88;;
78925;SDS011;68321;51.276;7.208;2023-04-23T09:24:21;6.60;;;2.28;;
78925;SDS011;68321;51.276;7.208;2023-04-23T09:26:48;5.85;;;2.80;;
78925;SDS011;68321;51.276;7.208;2023-04-23T09:29:18;4.13;;;2.50;;
78925;SDS011;68321;51.276;7.208;2023-04-23T09:31:46;5.55;;;2.90;;
78925;SDS011;68321;51.276;7.208;2023-04-23T09:34:20;3.38;;;2.42;;
78925;SDS011;68321;51.276;7.208;2023-04-23T09:36:48;6.05;;;2.80;;
78925;SDS011;68321;51.276;7.208;2023-04-23T09:39:18;5.30;;;3.03;;
78925;SDS011;68321;51.276;7.208;2023-04-23T09:44:11;6.37;;;2.87;;
78925;SDS011;68321;51.276;7.208;2023-04-23T09:46:38;5.15;;;2.50;;
78925;SDS011;68321;51.276;7.208;2023-04-23T09:49:06;9.90;;;4.25;;
78925;SDS011;68321;51.276;7.208;2023-04-23T09:51:32;7.75;;;3.17;;
78925;SDS011;68321;51.276;7.208;2023-04-23T09:54:09;11.65;;;5.18;;
78925;SDS011;68321;51.276;7.208;2023-04-23T09:56:39;5.22;;;2.95;;
78925;SDS011;68321;51.276;7.208;2023-04-23T10:02:04;8.25;;;5.22;;
78925;SDS011;68321;51.276;7.208;2023-04-23T10:04:30;5.40;;;2.60;;
78925;SDS011;68321;51.276;7.208;2023-04-23T10:06:57;5.15;;;2.83;;
78925;SDS011;68321;51.276;7.208;2023-04-23T10:09:24;4.90;;;2.85;;
78925;SDS011;68321;51.276;7.208;2023-04-23T10:11:54;6.03;;;2.55;;
78925;SDS011;68321;51.276;7.208;2023-04-23T10:14:20;6.88;;;3.92;;
78925;SDS011;68321;51.276;7.208;2023-04-23T10:16:46;4.05;;;3.03;;
78925;SDS011;68321;51.276;7.208;2023-04-23T10:21:40;6.87;;;3.27;;
78925;SDS011;68321;51.276;7.208;2023-04-23T10:24:06;6.50;;;2.92;;
78925;SDS011;68321;51.276;7.208;2023-04-23T10:26:33;7.13;;;2.95;;
78925;SDS011;68321;51.276;7.208;2023-04-23T10:29:02;6.85;;;3.13;;
78925;SDS011;68321;51.276;7.208;2023-04-23T10:31:29;5.68;;;2.63;;
78925;SDS011;68321;51.276;7.208;2023-04-23T10:33:56;5.45;;;2.67;;
78925;SDS011;68321;51.276;7.208;2023-04-23T10:36:22;4.53;;;2.42;;
78925;SDS011;68321;51.276;7.208;2023-04-23T10:38:49;3.03;;;2.60;;
78925;SDS011;68321;51.276;7.208;2023-04-23T10:41:15;7.07;;;3.38;;
78925;SDS011;68321;51.276;7.208;2023-04-23T10:43:41;5.13;;;2.45;;
78925;SDS011;68321;51.276;7.208;2023-04-23T10:46:26;3.55;;;2.17;;
78925;SDS011;68321;51.276;7.208;2023-04-23T10:51:39;4.05;;;2.50;;
78925;SDS011;68321;51.276;7.208;2023-04-23T10:54:06;5.43;;;2.17;;
78925;SDS011;68321;51.276;7.208;2023-04-23T10:56:33;3.90;;;1.98;;
78925;SDS011;68321;51.276;7.208;2023-04-23T10:58:59;3.42;;;2.13;;
78925;SDS011;68321;51.276;7.208;2023-04-23T11:01:24;4.07;;;2.45;;
78925;SDS011;68321;51.276;7.208;2023-04-23T11:03:51;3.72;;;2.17;;
78925;SDS011;68321;51.276;7.208;2023-04-23T11:11:58;10.02;;;4.35;;
78925;SDS011;68321;51.276;7.208;2023-04-23T11:17:07;4.18;;;2.53;;
78925;SDS011;68321;51.276;7.208;2023-04-23T11:19:36;3.50;;;2.00;;
78925;SDS011;68321;51.276;7.208;2023-04-23T11:22:12;6.30;;;2.10;;
78925;SDS011;68321;51.276;7.208;2023-04-23T11:24:39;5.40;;;2.95;;
78925;SDS011;68321;51.276;7.208;2023-04-23T11:27:18;9.25;;;3.22;;
78925;SDS011;68321;51.276;7.208;2023-04-23T11:29:45;3.25;;;1.90;;
78925;SDS011;68321;51.276;7.208;2023-04-23T11:32:11;3.63;;;2.03;;
78925;SDS011;68321;51.276;7.208;2023-04-23T11:34:38;4.32;;;1.85;;
78925;SDS011;68321;51.276;7.208;2023-04-23T11:37:08;6.20;;;2.00;;
78925;SDS011;68321;51.276;7.208;2023-04-23T11:39:34;4.32;;;2.10;;
78925;SDS011;68321;51.276;7.208;2023-04-23T11:42:00;5.55;;;1.90;;
78925;SDS011;68321;51.276;7.208;2023-04-23T11:44:27;2.92;;;1.58;;
78925;SDS011;68321;51.276;7.208;2023-04-23T11:46:54;3.58;;;1.63;;
78925;SDS011;68321;51.276;7.208;2023-04-23T11:49:20;3.25;;;2.55;;
78925;SDS011;68321;51.276;7.208;2023-04-23T11:51:46;3.63;;;1.80;;
78925;SDS011;68321;51.276;7.208;2023-04-23T11:54:12;4.32;;;2.15;;
78925;SDS011;68321;51.276;7.208;2023-04-23T11:56:39;3.53;;;1.95;;
78925;SDS011;68321;51.276;7.208;2023-04-23T11:59:04;4.20;;;1.95;;
78925;SDS011;68321;51.276;7.208;2023-04-23T12:01:43;3.03;;;1.50;;
78925;SDS011;68321;51.276;7.208;2023-04-23T12:04:14;5.72;;;2.40;;
78925;SDS011;68321;51.276;7.208;2023-04-23T12:06:44;4.28;;;1.80;;
78925;SDS011;68321;51.276;7.208;2023-04-23T12:09:10;2.40;;;1.50;;
78925;SDS011;68321;51.276;7.208;2023-04-23T12:11:37;2.75;;;1.45;;
78925;SDS011;68321;51.276;7.208;2023-04-23T12:14:03;5.43;;;1.77;;
78925;SDS011;68321;51.276;7.208;2023-04-23T12:16:39;5.43;;;2.15;;
78925;SDS011;68321;51.276;7.208;2023-04-23T12:19:06;2.88;;;1.58;;
78925;SDS011;68321;51.276;7.208;2023-04-23T12:21:32;4.88;;;1.75;;
78925;SDS011;68321;51.276;7.208;2023-04-23T12:23:58;2.38;;;1.60;;
78925;SDS011;68321;51.276;7.208;2023-04-23T12:26:24;2.00;;;1.50;;
78925;SDS011;68321;51.276;7.208;2023-04-23T12:28:50;4.75;;;1.92;;
78925;SDS011;68321;51.276;7.208;2023-04-23T12:31:26;4.38;;;1.92;;
78925;SDS011;68321;51.276;7.208;2023-04-23T12:34:02;2.58;;;1.48;;
78925;SDS011;68321;51.276;7.208;2023-04-23T12:36:29;5.07;;;1.92;;
78925;SDS011;68321;51.276;7.208;2023-04-23T12:41:57;5.60;;;1.42;;
78925;SDS011;68321;51.276;7.208;2023-04-23T12:44:28;3.10;;;1.75;;
78925;SDS011;68321;51.276;7.208;2023-04-23T12:46:55;4.32;;;2.20;;
78925;SDS011;68321;51.276;7.208;2023-04-23T12:49:22;4.18;;;2.13;;
78925;SDS011;68321;51.276;7.208;2023-04-23T12:51:47;2.75;;;1.55;;
78925;SDS011;68321;51.276;7.208;2023-04-23T12:54:13;3.50;;;1.85;;
78925;SDS011;68321;51.276;7.208;2023-04-23T12:56:38;2.47;;;1.67;;
78925;SDS011;68321;51.276;7.208;2023-04-23T12:59:03;2.43;;;1.70;;
78925;SDS011;68321;51.276;7.208;2023-04-23T13:01:29;4.32;;;2.05;;
78925;SDS011;68321;51.276;7.208;2023-04-23T13:03:55;4.68;;;1.70;;
78925;SDS011;68321;51.276;7.208;2023-04-23T13:06:21;3.63;;;2.00;;
78925;SDS011;68321;51.276;7.208;2023-04-23T13:08:46;4.43;;;1.60;;
78925;SDS011;68321;51.276;7.208;2023-04-23T13:11:11;2.63;;;1.63;;
78925;SDS011;68321;51.276;7.208;2023-04-23T13:13:37;3.03;;;1.73;;
78925;SDS011;68321;51.276;7.208;2023-04-23T13:16:02;2.33;;;1.50;;
78925;SDS011;68321;51.276;7.208;2023-04-23T13:18:27;3.47;;;1.70;;
78925;SDS011;68321;51.276;7.208;2023-04-23T13:20:53;4.10;;;1.50;;
78925;SDS011;68321;51.276;7.208;2023-04-23T13:23:18;5.07;;;1.83;;
78925;SDS011;68321;51.276;7.208;2023-04-23T13:25:44;2.50;;;1.60;;
78925;SDS011;68321;51.276;7.208;2023-04-23T13:28:09;4.18;;;1.88;;
78925;SDS011;68321;51.276;7.208;2023-04-23T13:30:34;4.40;;;1.70;;
78925;SDS011;68321;51.276;7.208;2023-04-23T13:33:00;6.17;;;3.27;;
78925;SDS011;68321;51.276;7.208;2023-04-23T13:35:26;4.82;;;1.95;;
78925;SDS011;68321;51.276;7.208;2023-04-23T13:37:51;3.92;;;2.05;;
78925;SDS011;68321;51.276;7.208;2023-04-23T13:40:17;3.42;;;2.20;;
78925;SDS011;68321;51.276;7.208;2023-04-23T13:42:43;3.33;;;1.92;;
78925;SDS011;68321;51.276;7.208;2023-04-23T13:45:08;4.45;;;2.08;;
78925;SDS011;68321;51.276;7.208;2023-04-23T13:47:34;4.55;;;1.40;;
78925;SDS011;68321;51.276;7.208;2023-04-23T13:49:59;4.20;;;1.52;;
78925;SDS011;68321;51.276;7.208;2023-04-23T13:52:30;2.65;;;1.33;;
78925;SDS011;68321;51.276;7.208;2023-04-23T13:54:56;2.08;;;1.38;;
78925;SDS011;68321;51.276;7.208;2023-04-23T13:57:24;2.10;;;1.33;;
78925;SDS011;68321;51.276;7.208;2023-04-23T13:59:50;3.55;;;1.55;;
78925;SDS011;68321;51.276;7.208;2023-04-23T14:02:15;2.47;;;1.42;;
78925;SDS011;68321;51.276;7.208;2023-04-23T14:04:41;2.10;;;1.30;;
78925;SDS011;68321;51.276;7.208;2023-04-23T14:07:06;3.30;;;1.67;;
78925;SDS011;68321;51.276;7.208;2023-04-23T14:09:31;2.90;;;1.65;;
78925;SDS011;68321;51.276;7.208;2023-04-23T14:11:58;1.60;;;1.30;;
78925;SDS011;68321;51.276;7.208;2023-04-23T14:14:23;2.95;;;1.63;;
78925;SDS011;68321;51.276;7.208;2023-04-23T14:16:49;3.05;;;1.95;;
78925;SDS011;68321;51.276;7.208;2023-04-23T14:19:14;3.72;;;1.80;;
78925;SDS011;68321;51.276;7.208;2023-04-23T14:21:40;3.85;;;1.98;;
78925;SDS011;68321;51.276;7.208;2023-04-23T14:24:15;4.50;;;1.60;;
78925;SDS011;68321;51.276;7.208;2023-04-23T14:26:42;2.85;;;1.42;;
78925;SDS011;68321;51.276;7.208;2023-04-23T14:29:22;3.15;;;1.75;;
78925;SDS011;68321;51.276;7.208;2023-04-23T14:31:51;4.03;;;1.85;;
78925;SDS011;68321;51.276;7.208;2023-04-23T14:34:17;3.10;;;1.40;;
78925;SDS011;68321;51.276;7.208;2023-04-23T14:36:42;3.58;;;1.60;;
78925;SDS011;68321;51.276;7.208;2023-04-23T14:39:08;3.55;;;1.65;;
78925;SDS011;68321;51.276;7.208;2023-04-23T14:41:35;5.53;;;1.58;;
78925;SDS011;68321;51.276;7.208;2023-04-23T14:44:01;6.20;;;2.17;;
78925;SDS011;68321;51.276;7.208;2023-04-23T14:46:27;3.63;;;1.70;;
78925;SDS011;68321;51.276;7.208;2023-04-23T14:48:52;3.65;;;2.08;;
78925;SDS011;68321;51.276;7.208;2023-04-23T14:51:18;3.67;;;1.45;;
78925;SDS011;68321;51.276;7.208;2023-04-23T14:53:43;2.78;;;1.45;;
78925;SDS011;68321;51.276;7.208;2023-04-23T14:56:08;3.50;;;1.60;;